Terminal Aerodrome Forecast
Issued by NWS Charleston, WV

Current Version | Previous Version | Graphics & Text | Print | Product List | Glossary On
Versions: 1 2 3 4 5 6 7 8 9 10 11 12 13 14 15 16 17 18 19 20 21 22 23 24
000
FTUS41 KRLX 161725
TAFBKW
TAF
KBKW 161725Z 1618/1718 30004KT P6SM FEW040 SCT070
     FM170000 00000KT P6SM FEW250
     FM170900 VRB03KT P6SM SCT050
     FM171300 VRB03KT P6SM BKN040=

USA.gov is the U.S. government's official web portal to all federal, state and local government web resources and services.